Time;durP1;ratioP1;P1;durP2;ratioP2;P2;SDS_P1;SDS_P2;PMS_P1;PMS_P2;Temp;Humidity;BMP_temperature;BMP_pressure;BME280_temperature;BME280_humidity;BME280_pressure;Samples;Min_cycle;Max_cycle;Signal;HPM_P1;HPM_P2
2021/03/13 00:00:17;;;;;;;2.17;1.20;;;4.10;99.90;;;;;;5117225;28;20432;-39
2021/03/13 00:02:43;;;;;;;2.57;1.20;;;4.10;99.90;;;;;;5105256;28;20566;-40
2021/03/13 00:05:12;;;;;;;2.00;1.57;;;4.20;99.90;;;;;;5118197;28;20512;-40
2021/03/13 00:07:37;;;;;;;4.27;2.13;;;4.40;99.90;;;;;;5117079;28;20483;-38
2021/03/13 00:10:04;;;;;;;7.10;2.03;;;4.40;99.90;;;;;;5117335;28;20855;-38
2021/03/13 00:12:30;;;;;;;4.70;1.47;;;4.30;99.90;;;;;;5117028;28;20287;-41
2021/03/13 00:14:56;;;;;;;2.07;1.00;;;4.40;99.90;;;;;;5116730;28;20584;-42
2021/03/13 00:17:21;;;;;;;2.90;1.60;;;4.40;99.90;;;;;;5117685;28;20426;-42
2021/03/13 00:19:47;;;;;;;2.63;1.53;;;4.50;99.90;;;;;;5118229;28;20252;-38
2021/03/13 00:22:12;;;;;;;2.73;1.03;;;4.60;99.90;;;;;;5118719;28;20179;-42
2021/03/13 00:24:38;;;;;;;8.00;1.20;;;4.60;99.90;;;;;;5118911;28;20203;-40
2021/03/13 00:27:04;;;;;;;2.37;1.40;;;4.50;99.90;;;;;;5118268;28;20180;-41
2021/03/13 00:29:30;;;;;;;2.60;1.10;;;4.50;99.90;;;;;;5118371;28;20168;-40
2021/03/13 00:31:55;;;;;;;2.60;1.40;;;4.50;99.90;;;;;;5125406;27;20549;-41
2021/03/13 00:34:21;;;;;;;4.40;1.60;;;4.50;99.90;;;;;;5130477;27;20747;-42
2021/03/13 00:36:50;;;;;;;3.63;1.60;;;4.50;99.90;;;;;;5139110;27;20557;-43
2021/03/13 00:39:16;;;;;;;2.47;1.40;;;4.50;99.90;;;;;;5138802;27;20175;-40
2021/03/13 00:41:42;;;;;;;4.17;1.67;;;4.50;99.90;;;;;;5138533;27;20455;-37
2021/03/13 00:44:08;;;;;;;3.13;1.03;;;4.40;99.90;;;;;;5135813;27;20481;-39
2021/03/13 00:46:34;;;;;;;1.93;0.70;;;4.30;99.90;;;;;;5138215;27;20429;-38
2021/03/13 00:49:00;;;;;;;1.60;0.63;;;4.30;99.90;;;;;;5139405;27;20414;-41
2021/03/13 00:51:25;;;;;;;1.57;0.80;;;4.20;99.90;;;;;;5119241;28;20179;-39
2021/03/13 00:53:51;;;;;;;2.50;0.80;;;4.20;99.90;;;;;;5137909;27;20182;-43
2021/03/13 00:56:16;;;;;;;4.03;1.00;;;5.60;99.90;;;;;;5139273;27;20179;-39
2021/03/13 00:58:42;;;;;;;3.20;0.90;;;6.40;99.90;;;;;;5138423;27;20181;-36
2021/03/13 01:01:08;;;;;;;1.00;0.50;;;6.70;99.90;;;;;;5138688;27;20262;-38
2021/03/13 01:03:33;;;;;;;3.27;0.63;;;5.40;99.90;;;;;;5139108;27;20199;-35
2021/03/13 01:05:59;;;;;;;2.40;0.60;;;5.10;99.90;;;;;;5138499;27;20250;-40
2021/03/13 01:08:25;;;;;;;1.70;0.70;;;4.80;99.90;;;;;;5137815;27;20251;-38
2021/03/13 01:10:52;;;;;;;1.43;0.53;;;4.50;99.90;;;;;;5118723;27;20183;-37
2021/03/13 01:13:19;;;;;;;2.63;0.50;;;4.20;99.90;;;;;;5117152;28;20164;-38
2021/03/13 01:15:45;;;;;;;1.10;0.40;;;4.10;99.90;;;;;;5116862;28;20465;-38
2021/03/13 01:18:11;;;;;;;1.20;0.60;;;4.20;99.90;;;;;;5117003;28;20413;-40
2021/03/13 01:20:37;;;;;;;1.00;0.60;;;4.20;99.90;;;;;;5116717;28;20819;-37
2021/03/13 01:23:03;;;;;;;1.93;0.47;;;4.30;99.90;;;;;;5117016;28;20438;-39
2021/03/13 01:25:29;;;;;;;1.40;0.50;;;4.20;99.90;;;;;;5118038;28;20207;-41
2021/03/13 01:27:55;;;;;;;1.43;0.77;;;4.20;99.90;;;;;;5118296;28;20851;-39
2021/03/13 01:30:21;;;;;;;1.33;0.70;;;4.20;99.90;;;;;;5118067;28;20181;-39
2021/03/13 01:32:51;;;;;;;1.03;0.50;;;4.20;99.90;;;;;;5117792;28;20179;-40
2021/03/13 01:35:18;;;;;;;2.00;0.90;;;4.20;99.90;;;;;;5117764;28;20436;-36
2021/03/13 01:37:44;;;;;;;2.03;0.80;;;4.10;99.90;;;;;;5117651;28;20421;-39
2021/03/13 01:40:14;;;;;;;1.20;0.80;;;4.10;99.90;;;;;;5117396;28;20448;-40
2021/03/13 01:42:40;;;;;;;3.50;1.40;;;4.10;99.90;;;;;;5118542;28;20513;-37
2021/03/13 01:45:07;;;;;;;6.43;1.63;;;4.10;99.90;;;;;;5099567;28;20827;-38
2021/03/13 01:47:33;;;;;;;4.60;1.00;;;4.20;99.90;;;;;;5117926;28;20718;-39
2021/03/13 01:49:59;;;;;;;1.87;1.20;;;4.30;99.90;;;;;;5117472;28;20418;-35
2021/03/13 01:52:26;;;;;;;2.00;1.20;;;4.30;99.90;;;;;;5117798;28;20421;-35
2021/03/13 01:54:52;;;;;;;4.70;1.40;;;4.30;99.90;;;;;;5100199;28;20183;-39
2021/03/13 01:57:18;;;;;;;1.77;1.30;;;4.40;99.90;;;;;;5117837;28;20505;-40
2021/03/13 01:59:44;;;;;;;2.73;1.30;;;4.30;99.90;;;;;;5118283;28;20249;-41
2021/03/13 02:02:11;;;;;;;3.13;1.03;;;4.40;99.90;;;;;;5117880;28;20425;-41
2021/03/13 02:04:38;;;;;;;8.13;1.93;;;4.50;99.90;;;;;;5117260;28;20742;-39
2021/03/13 02:07:25;;;;;;;1.37;1.10;;;4.50;99.90;;;;;;5117422;28;20429;-38
2021/03/13 02:10:01;;;;;;;4.13;1.73;;;4.60;99.90;;;;;;5117472;28;20428;-38
2021/03/13 02:12:29;;;;;;;2.90;1.50;;;4.60;99.90;;;;;;5117764;28;20440;-37
2021/03/13 02:15:03;;;;;;;2.63;1.17;;;4.60;99.90;;;;;;5117743;28;20735;-37
2021/03/13 02:17:39;;;;;;;5.53;1.20;;;4.60;99.90;;;;;;5099895;28;20525;-40
2021/03/13 02:20:29;;;;;;;3.10;1.30;;;4.70;99.90;;;;;;5119421;28;20443;-37
2021/03/13 02:22:56;;;;;;;5.47;1.63;;;4.70;99.90;;;;;;5121318;28;20726;-37
2021/03/13 02:25:55;;;;;;;6.53;1.43;;;4.80;99.90;;;;;;5102870;28;20918;-41
2021/03/13 02:28:46;;;;;;;5.87;1.30;;;4.80;99.90;;;;;;5103173;28;20420;-39
2021/03/13 02:31:12;;;;;;;3.20;1.67;;;4.90;99.90;;;;;;5120762;28;20416;-38
2021/03/13 02:33:40;;;;;;;4.63;1.73;;;4.90;99.90;;;;;;5102090;28;20507;-39
2021/03/13 02:36:10;;;;;;;6.43;1.47;;;4.90;99.90;;;;;;5120620;28;20537;-37
2021/03/13 02:38:52;;;;;;;2.60;1.33;;;5.00;99.90;;;;;;5121128;28;20428;-38
2021/03/13 02:41:20;;;;;;;3.23;1.70;;;5.00;99.90;;;;;;5103158;28;20436;-39
2021/03/13 02:43:49;;;;;;;6.77;1.47;;;5.00;99.90;;;;;;5102344;28;20460;-40
2021/03/13 02:49:38;;;;;;;2.50;1.47;;;5.10;99.90;;;;;;5120357;28;20728;-38
2021/03/13 02:52:06;;;;;;;3.37;1.50;;;5.10;99.90;;;;;;5102557;28;20859;-40
2021/03/13 02:54:33;;;;;;;5.17;1.40;;;5.20;99.90;;;;;;5120598;28;20417;-39
2021/03/13 02:56:59;;;;;;;4.00;1.50;;;5.30;99.90;;;;;;5120418;28;21235;-40
2021/03/13 02:59:26;;;;;;;8.70;1.80;;;5.40;99.90;;;;;;5102174;28;20425;-36
2021/03/13 03:01:53;;;;;;;3.50;2.10;;;5.40;99.90;;;;;;5120645;28;20858;-40
2021/03/13 03:04:19;;;;;;;5.80;2.03;;;5.40;99.90;;;;;;5101900;28;20739;-37
2021/03/13 03:06:51;;;;;;;3.53;1.60;;;5.40;99.90;;;;;;5102065;28;20426;-38
2021/03/13 03:09:16;;;;;;;5.80;2.03;;;5.40;99.90;;;;;;5102272;28;20418;-38
2021/03/13 03:11:43;;;;;;;2.27;1.17;;;5.40;99.90;;;;;;5120381;28;20764;-39
2021/03/13 03:14:14;;;;;;;2.10;1.10;;;5.40;99.90;;;;;;5102157;28;20453;-38
2021/03/13 03:16:41;;;;;;;3.77;1.53;;;5.30;99.90;;;;;;5119870;28;20469;-38
2021/03/13 03:19:08;;;;;;;3.17;1.10;;;5.40;99.90;;;;;;5101522;28;20425;-39
2021/03/13 03:21:35;;;;;;;3.13;1.37;;;5.40;99.90;;;;;;5102383;28;20425;-36
2021/03/13 03:24:01;;;;;;;5.10;1.43;;;5.50;99.90;;;;;;5119638;28;20458;-38
2021/03/13 03:26:27;;;;;;;1.47;1.00;;;5.50;99.80;;;;;;5119916;28;20430;-37
2021/03/13 03:28:53;;;;;;;4.87;1.27;;;5.40;99.70;;;;;;5119764;28;20846;-38
2021/03/13 03:31:18;;;;;;;4.07;1.57;;;5.50;99.80;;;;;;5119340;28;20425;-39
2021/03/13 03:33:44;;;;;;;8.93;2.23;;;5.50;99.70;;;;;;5119786;28;20184;-38
2021/03/13 03:36:10;;;;;;;6.60;2.10;;;5.50;99.80;;;;;;5119611;28;20191;-39
2021/03/13 03:38:36;;;;;;;7.90;1.63;;;5.50;99.70;;;;;;5120257;28;20180;-37
2021/03/13 03:41:02;;;;;;;6.50;4.20;;;5.60;99.70;;;;;;5113977;28;20474;-38
2021/03/13 03:43:42;;;;;;;2.33;1.20;;;5.60;99.40;;;;;;5103712;28;20894;-38
2021/03/13 03:46:09;;;;;;;3.30;1.50;;;5.60;99.50;;;;;;5087257;28;20486;-39
2021/03/13 03:48:35;;;;;;;3.83;1.20;;;5.70;99.50;;;;;;5094460;28;20418;-39
2021/03/13 03:51:02;;;;;;;6.57;1.73;;;5.60;99.40;;;;;;5098964;28;20689;-40
2021/03/13 03:53:33;;;;;;;2.57;1.30;;;5.60;99.40;;;;;;5097768;28;20403;-39
2021/03/13 03:56:00;;;;;;;5.20;1.43;;;5.70;99.30;;;;;;5097895;28;20436;-39
2021/03/13 03:58:26;;;;;;;4.00;0.97;;;5.70;99.30;;;;;;5097624;28;20425;-38
2021/03/13 04:00:53;;;;;;;2.40;1.00;;;5.70;99.40;;;;;;5105300;28;20426;-38
2021/03/13 04:03:21;;;;;;;4.47;1.40;;;5.70;99.60;;;;;;5107770;28;20422;-39
2021/03/13 04:05:47;;;;;;;2.37;1.23;;;5.70;99.60;;;;;;5097748;28;20417;-38
2021/03/13 04:08:15;;;;;;;2.00;1.03;;;5.80;99.50;;;;;;5097443;28;20567;-40
2021/03/13 04:10:44;;;;;;;4.63;1.17;;;5.70;99.60;;;;;;5097565;28;20415;-39
2021/03/13 04:13:11;;;;;;;5.03;1.20;;;5.70;99.80;;;;;;5098680;28;20452;-40
2021/03/13 04:15:39;;;;;;;6.40;1.40;;;5.70;99.70;;;;;;5097503;28;20569;-40
2021/03/13 04:18:05;;;;;;;2.30;0.90;;;5.80;99.50;;;;;;5097648;28;20915;-39
2021/03/13 04:20:31;;;;;;;4.10;1.00;;;5.80;99.50;;;;;;5080370;28;20492;-39
2021/03/13 04:22:57;;;;;;;3.07;1.23;;;5.90;99.60;;;;;;5097116;28;20424;-38
2021/03/13 04:25:23;;;;;;;3.13;1.20;;;5.90;99.30;;;;;;5097163;28;20539;-38
2021/03/13 04:27:48;;;;;;;9.83;2.40;;;5.90;99.30;;;;;;5096894;28;20418;-37
2021/03/13 04:30:16;;;;;;;2.60;0.90;;;5.90;99.40;;;;;;5097449;28;20244;-39
2021/03/13 04:32:45;;;;;;;3.90;1.67;;;5.90;99.50;;;;;;5098620;28;20168;-40
2021/03/13 04:35:11;;;;;;;1.83;1.00;;;6.00;99.20;;;;;;5099905;28;20436;-40
2021/03/13 04:37:38;;;;;;;1.60;0.90;;;6.00;99.10;;;;;;5100559;28;20761;-38
2021/03/13 04:40:05;;;;;;;3.53;0.70;;;6.00;99.10;;;;;;5083336;28;20417;-39
2021/03/13 04:42:31;;;;;;;5.43;1.47;;;6.10;98.70;;;;;;5117757;28;20742;-35
2021/03/13 04:44:57;;;;;;;3.70;1.10;;;6.00;99.00;;;;;;5100183;28;20464;-38
2021/03/13 04:47:22;;;;;;;5.10;1.07;;;5.90;99.10;;;;;;5118398;28;20862;-38
2021/03/13 04:49:48;;;;;;;2.60;0.90;;;6.00;99.00;;;;;;5118756;28;20409;-38
2021/03/13 04:52:14;;;;;;;1.73;1.00;;;6.00;99.00;;;;;;5100312;28;20180;-38
2021/03/13 04:54:40;;;;;;;1.40;0.90;;;6.00;99.00;;;;;;5100546;28;20263;-38
2021/03/13 04:57:06;;;;;;;4.00;0.87;;;6.00;98.60;;;;;;5118645;28;20480;-40
2021/03/13 04:59:31;;;;;;;2.13;0.87;;;6.10;98.70;;;;;;5118140;28;20233;-40
2021/03/13 05:01:58;;;;;;;2.10;0.73;;;6.10;98.50;;;;;;5118779;28;20199;-38
2021/03/13 05:04:24;;;;;;;1.73;0.90;;;6.20;97.90;;;;;;5118257;28;20342;-37
2021/03/13 05:06:49;;;;;;;3.70;1.10;;;6.20;97.80;;;;;;5117105;28;20698;-40
2021/03/13 05:09:16;;;;;;;1.40;0.80;;;6.20;97.60;;;;;;5116751;28;20214;-38
2021/03/13 05:11:41;;;;;;;1.63;0.90;;;6.20;97.80;;;;;;5116448;28;20179;-38
2021/03/13 05:14:07;;;;;;;1.63;1.20;;;6.20;97.60;;;;;;5117187;28;20424;-38
2021/03/13 05:16:33;;;;;;;1.40;0.90;;;6.20;97.40;;;;;;5116572;28;20366;-40
2021/03/13 05:18:58;;;;;;;1.30;0.60;;;6.30;97.30;;;;;;5117228;28;20491;-39
2021/03/13 05:21:24;;;;;;;4.07;1.03;;;6.30;97.20;;;;;;5117447;28;20259;-36
2021/03/13 05:23:50;;;;;;;3.90;1.00;;;6.30;97.10;;;;;;5117925;28;20214;-37
2021/03/13 05:26:16;;;;;;;2.20;0.83;;;6.30;96.90;;;;;;5117755;28;20267;-38
2021/03/13 05:28:42;;;;;;;4.73;0.97;;;6.30;97.00;;;;;;5118150;28;20496;-38
2021/03/13 05:31:07;;;;;;;1.77;0.97;;;6.40;96.70;;;;;;5117573;28;20429;-37
2021/03/13 05:33:33;;;;;;;1.00;0.60;;;6.30;96.50;;;;;;5117709;28;20172;-39
2021/03/13 05:35:59;;;;;;;4.13;1.23;;;6.40;96.60;;;;;;5117768;28;20179;-38
2021/03/13 05:38:24;;;;;;;3.83;1.03;;;6.40;96.30;;;;;;5116967;28;20241;-35
2021/03/13 05:40:50;;;;;;;2.60;0.97;;;6.40;96.30;;;;;;5116771;28;20175;-37
2021/03/13 05:43:15;;;;;;;1.33;0.60;;;6.30;96.50;;;;;;5117620;28;20740;-38
2021/03/13 05:45:41;;;;;;;1.67;0.87;;;6.30;96.70;;;;;;5100223;28;20196;-36
2021/03/13 05:48:09;;;;;;;5.20;1.10;;;6.40;96.60;;;;;;5099169;28;20191;-38
2021/03/13 05:50:35;;;;;;;2.20;1.00;;;6.40;96.50;;;;;;5116509;28;20413;-40
2021/03/13 05:53:03;;;;;;;3.00;1.07;;;6.40;96.40;;;;;;5099842;28;20435;-40
2021/03/13 05:55:30;;;;;;;1.93;0.97;;;6.50;96.10;;;;;;5125281;27;20535;-41
2021/03/13 05:57:55;;;;;;;1.33;0.83;;;6.50;96.00;;;;;;5142317;27;20450;-39
2021/03/13 06:00:21;;;;;;;3.50;1.30;;;6.50;96.10;;;;;;5142173;27;20905;-38
2021/03/13 06:02:48;;;;;;;3.60;0.93;;;6.50;95.90;;;;;;5139680;27;20255;-38
2021/03/13 06:05:15;;;;;;;2.53;1.00;;;6.50;96.00;;;;;;5121166;28;20496;-36
2021/03/13 06:07:42;;;;;;;1.30;0.83;;;6.50;95.80;;;;;;5121425;28;20417;-40
2021/03/13 06:10:08;;;;;;;3.37;1.00;;;6.50;95.60;;;;;;5121208;28;20431;-40
2021/03/13 06:12:34;;;;;;;2.07;1.13;;;6.60;95.60;;;;;;5121104;28;20425;-38
2021/03/13 06:14:59;;;;;;;1.60;1.00;;;6.50;95.50;;;;;;5121119;28;20462;-38
2021/03/13 06:17:25;;;;;;;3.80;1.90;;;6.60;95.50;;;;;;5129682;27;20206;-38
2021/03/13 06:19:56;;;;;;;3.50;1.37;;;6.60;95.40;;;;;;5133105;27;20187;-39
2021/03/13 06:22:39;;;;;;;3.43;1.30;;;6.60;95.10;;;;;;5141853;27;20546;-39
2021/03/13 06:25:10;;;;;;;4.97;1.37;;;6.70;94.80;;;;;;5141819;27;20892;-39
2021/03/13 06:27:36;;;;;;;3.33;0.80;;;6.70;94.70;;;;;;5142019;27;20871;-40
2021/03/13 06:30:12;;;;;;;5.23;1.10;;;6.70;94.60;;;;;;5141299;27;20495;-40
2021/03/13 06:32:40;;;;;;;4.60;1.10;;;6.70;94.70;;;;;;5140324;27;20553;-38
2021/03/13 06:35:29;;;;;;;3.43;0.97;;;6.70;94.50;;;;;;5140899;27;20456;-38
2021/03/13 06:37:57;;;;;;;2.77;1.00;;;6.80;94.50;;;;;;5102771;28;20910;-39
2021/03/13 06:40:34;;;;;;;3.27;1.00;;;6.90;94.00;;;;;;5102772;27;20488;-38
2021/03/13 06:43:01;;;;;;;4.70;1.00;;;6.90;93.90;;;;;;5140703;27;20431;-41
2021/03/13 06:45:27;;;;;;;3.43;1.47;;;7.00;93.90;;;;;;5138234;27;20514;-40
2021/03/13 06:47:53;;;;;;;2.87;0.97;;;7.10;94.00;;;;;;5138151;27;20435;-39
2021/03/13 06:50:26;;;;;;;7.27;1.10;;;7.10;93.40;;;;;;5137736;27;20412;-39
2021/03/13 06:52:53;;;;;;;3.03;1.30;;;7.10;93.10;;;;;;5137675;27;20183;-37
2021/03/13 06:55:23;;;;;;;2.17;0.90;;;7.10;93.20;;;;;;5138044;27;20424;-38
2021/03/13 06:57:49;;;;;;;5.90;1.80;;;7.10;93.10;;;;;;5139966;27;20441;-39
2021/03/13 07:00:33;;;;;;;2.67;0.70;;;7.30;92.90;;;;;;5140101;27;20690;-37
2021/03/13 07:03:10;;;;;;;2.73;0.90;;;7.40;92.40;;;;;;5120635;28;20479;-40
2021/03/13 07:05:37;;;;;;;4.40;1.50;;;7.40;92.30;;;;;;5122379;27;20464;-38
2021/03/13 07:08:21;;;;;;;2.77;1.10;;;7.30;92.40;;;;;;5140614;27;20435;-40
2021/03/13 07:10:47;;;;;;;2.03;0.70;;;7.40;92.60;;;;;;5138945;27;20421;-36
2021/03/13 07:13:31;;;;;;;3.70;0.97;;;7.40;92.10;;;;;;5121390;27;20443;-36
2021/03/13 07:16:20;;;;;;;2.47;0.93;;;7.40;92.10;;;;;;5137801;27;20323;-39
2021/03/13 07:18:46;;;;;;;1.43;0.67;;;7.50;91.40;;;;;;5138894;27;20416;-40
2021/03/13 07:21:15;;;;;;;5.27;0.97;;;7.60;91.30;;;;;;5138075;27;20432;-37
2021/03/13 07:23:46;;;;;;;1.63;1.10;;;7.60;91.40;;;;;;5138749;27;20416;-38
2021/03/13 07:26:14;;;;;;;1.73;0.83;;;7.80;91.80;;;;;;5121400;27;20440;-36
2021/03/13 07:28:44;;;;;;;4.20;1.07;;;7.80;91.00;;;;;;5140703;27;20412;-39
2021/03/13 07:31:11;;;;;;;5.70;1.80;;;7.90;90.60;;;;;;5139797;27;20435;-40
2021/03/13 07:33:40;;;;;;;1.50;1.00;;;7.90;90.50;;;;;;5140303;27;20526;-41
2021/03/13 07:36:10;;;;;;;2.80;1.00;;;7.90;90.30;;;;;;5122501;27;20699;-37
2021/03/13 07:38:40;;;;;;;4.60;1.07;;;7.80;90.40;;;;;;5122482;27;20421;-41
2021/03/13 07:41:09;;;;;;;3.70;1.30;;;7.80;90.40;;;;;;5109692;27;20524;-40
2021/03/13 07:43:35;;;;;;;4.90;1.17;;;7.80;90.50;;;;;;5139534;27;20420;-39
2021/03/13 07:46:01;;;;;;;2.60;0.80;;;7.90;90.40;;;;;;5139827;27;20492;-39
2021/03/13 07:48:27;;;;;;;4.10;0.80;;;7.90;89.80;;;;;;5121667;27;20468;-41
2021/03/13 07:50:53;;;;;;;1.50;0.70;;;8.00;90.10;;;;;;5138646;27;20512;-40
2021/03/13 07:53:18;;;;;;;3.07;1.00;;;8.10;89.80;;;;;;5139581;27;20171;-40
2021/03/13 07:55:50;;;;;;;2.00;1.00;;;8.00;89.40;;;;;;5121302;27;20179;-38
2021/03/13 07:58:15;;;;;;;2.70;0.70;;;7.90;89.10;;;;;;5119846;27;20175;-38
2021/03/13 08:00:44;;;;;;;2.50;0.60;;;7.90;89.30;;;;;;5120856;27;20562;-36
2021/03/13 08:03:38;;;;;;;1.40;0.70;;;8.00;89.30;;;;;;5138528;27;20179;-41
2021/03/13 08:06:05;;;;;;;1.63;0.50;;;8.10;89.00;;;;;;5139371;27;20897;-39
2021/03/13 08:08:52;;;;;;;3.60;0.90;;;8.40;87.60;;;;;;5138682;27;20413;-39
2021/03/13 08:11:24;;;;;;;1.00;0.50;;;8.70;86.40;;;;;;5138570;27;20432;-37
2021/03/13 08:13:58;;;;;;;1.43;0.77;;;8.70;85.50;;;;;;5138273;27;20425;-38
2021/03/13 08:16:42;;;;;;;1.40;0.90;;;8.80;86.80;;;;;;5136592;27;20480;-40
2021/03/13 08:19:27;;;;;;;1.90;0.90;;;8.80;84.40;;;;;;5139697;27;20822;-38
2021/03/13 08:22:09;;;;;;;1.63;0.60;;;8.60;85.00;;;;;;5138645;27;20436;-39
2021/03/13 08:24:49;;;;;;;2.33;0.60;;;8.50;85.10;;;;;;5139324;27;20466;-37
2021/03/13 08:27:24;;;;;;;3.33;0.83;;;8.40;84.20;;;;;;5138705;27;20496;-37
2021/03/13 08:29:52;;;;;;;1.57;1.10;;;8.70;82.80;;;;;;5120900;27;20519;-39
2021/03/13 08:32:57;;;;;;;3.23;0.97;;;9.00;82.70;;;;;;5120135;27;20441;-37
2021/03/13 08:35:46;;;;;;;1.80;0.77;;;9.40;80.90;;;;;;5138587;27;20564;-40
2021/03/13 08:38:12;;;;;;;1.57;1.10;;;9.90;78.70;;;;;;5139079;27;20432;-36
2021/03/13 08:40:47;;;;;;;1.40;0.70;;;10.30;74.40;;;;;;5120561;27;20485;-41
2021/03/13 08:43:32;;;;;;;1.83;0.80;;;10.30;74.10;;;;;;5138925;27;20423;-40
2021/03/13 08:45:58;;;;;;;1.27;0.70;;;10.10;72.30;;;;;;5139152;27;20826;-40
2021/03/13 08:49:01;;;;;;;4.40;1.03;;;10.00;73.60;;;;;;5119613;27;20412;-40
2021/03/13 08:51:27;;;;;;;3.73;2.13;;;9.90;75.50;;;;;;5138378;27;20309;-39
2021/03/13 08:53:53;;;;;;;2.83;0.90;;;9.60;76.00;;;;;;5138652;27;20428;-37
2021/03/13 08:56:36;;;;;;;3.03;0.87;;;9.50;75.80;;;;;;5137680;27;20782;-35
2021/03/13 08:59:12;;;;;;;1.47;0.83;;;9.30;76.50;;;;;;5137332;27;20680;-39
2021/03/13 09:01:39;;;;;;;2.60;0.60;;;9.30;76.90;;;;;;5136928;27;20782;-41
2021/03/13 09:04:05;;;;;;;2.00;0.90;;;9.40;76.80;;;;;;5119205;27;20487;-40
2021/03/13 09:06:30;;;;;;;2.60;0.80;;;9.50;76.10;;;;;;5119076;27;20459;-39
2021/03/13 09:09:09;;;;;;;2.50;0.73;;;9.90;75.30;;;;;;5138346;27;20405;-38
2021/03/13 09:11:36;;;;;;;1.80;0.73;;;10.30;72.80;;;;;;5136162;27;20178;-37
2021/03/13 09:14:03;;;;;;;1.87;0.87;;;10.40;71.80;;;;;;5137267;27;20420;-40
2021/03/13 09:16:37;;;;;;;2.70;0.90;;;9.90;73.50;;;;;;5136453;27;20468;-39
2021/03/13 09:19:05;;;;;;;2.20;0.77;;;9.70;74.40;;;;;;5137565;27;20408;-38
2021/03/13 09:21:45;;;;;;;2.70;1.20;;;9.70;74.10;;;;;;5137355;27;20432;-40
2021/03/13 09:24:18;;;;;;;1.60;0.70;;;9.70;73.80;;;;;;5118832;28;20460;-36
2021/03/13 09:26:48;;;;;;;1.90;0.97;;;9.40;73.40;;;;;;5137966;28;20695;-39
2021/03/13 09:29:14;;;;;;;1.30;0.60;;;9.60;74.30;;;;;;5142616;27;20759;-37
2021/03/13 09:31:40;;;;;;;3.07;0.90;;;9.80;74.50;;;;;;5144572;27;20493;-39
2021/03/13 09:34:16;;;;;;;1.23;0.50;;;9.90;73.80;;;;;;5144930;27;20709;-39
2021/03/13 09:36:45;;;;;;;2.93;0.90;;;9.90;72.60;;;;;;5144170;27;20186;-35
2021/03/13 09:39:10;;;;;;;2.87;0.93;;;10.00;71.50;;;;;;5125917;27;20416;-38
2021/03/13 09:41:36;;;;;;;1.27;0.67;;;9.90;72.60;;;;;;5143885;27;20439;-36
2021/03/13 09:44:02;;;;;;;1.67;0.90;;;9.90;73.20;;;;;;5145100;27;20194;-41
2021/03/13 09:46:29;;;;;;;2.13;0.67;;;9.90;73.40;;;;;;5144331;27;20572;-40
2021/03/13 09:48:55;;;;;;;4.77;0.83;;;9.90;73.40;;;;;;5126453;27;20412;-38
2021/03/13 09:51:22;;;;;;;3.33;0.97;;;9.90;73.40;;;;;;5126334;27;20714;-37
2021/03/13 09:53:47;;;;;;;0.90;0.60;;;9.80;73.50;;;;;;5144277;27;20556;-37
2021/03/13 09:56:13;;;;;;;3.80;0.97;;;9.70;73.80;;;;;;5126123;27;20428;-38
2021/03/13 09:58:38;;;;;;;2.73;0.70;;;9.60;74.60;;;;;;5143941;27;20171;-41
2021/03/13 10:01:04;;;;;;;2.57;1.00;;;9.70;75.60;;;;;;5126347;27;20182;-42
2021/03/13 10:03:30;;;;;;;2.13;0.70;;;9.80;74.90;;;;;;5138449;27;20639;-41
2021/03/13 10:05:57;;;;;;;2.40;0.80;;;9.60;74.80;;;;;;5144648;27;20424;-41
2021/03/13 10:08:36;;;;;;;2.30;0.80;;;9.60;75.00;;;;;;5144856;27;20171;-41
2021/03/13 10:11:04;;;;;;;1.93;1.03;;;9.70;75.50;;;;;;5144318;27;20424;-42
2021/03/13 10:13:30;;;;;;;2.30;1.17;;;9.70;75.20;;;;;;5144263;27;20408;-38
2021/03/13 10:15:56;;;;;;;2.10;0.80;;;9.70;74.90;;;;;;5142792;27;20557;-42
2021/03/13 10:18:26;;;;;;;2.10;1.10;;;9.60;75.20;;;;;;5142119;27;20423;-39
2021/03/13 10:20:54;;;;;;;1.73;1.00;;;9.60;75.00;;;;;;5142681;27;20446;-41
2021/03/13 10:23:31;;;;;;;2.30;0.90;;;9.30;74.90;;;;;;5144545;27;20444;-41
2021/03/13 10:26:01;;;;;;;1.13;0.80;;;9.40;76.10;;;;;;5129328;27;20408;-40
2021/03/13 10:28:47;;;;;;;3.43;1.10;;;9.50;76.10;;;;;;5144665;27;20404;-41
2021/03/13 10:31:25;;;;;;;2.83;0.70;;;9.50;76.50;;;;;;5144556;27;20420;-44
2021/03/13 10:33:51;;;;;;;2.00;0.63;;;9.50;75.10;;;;;;5143700;27;20404;-46
2021/03/13 10:36:18;;;;;;;4.73;1.90;;;9.50;75.40;;;;;;5142946;27;20429;-38
2021/03/13 10:38:49;;;;;;;1.30;0.63;;;9.70;76.40;;;;;;5143757;27;20195;-38
2021/03/13 10:41:17;;;;;;;2.90;0.70;;;9.70;75.70;;;;;;5139663;27;20493;-36
2021/03/13 10:43:46;;;;;;;1.60;0.50;;;9.60;74.80;;;;;;5141324;27;20439;-40
2021/03/13 10:46:25;;;;;;;1.93;0.70;;;9.50;75.30;;;;;;5140281;27;20573;-39
2021/03/13 10:48:54;;;;;;;1.60;0.80;;;9.50;75.30;;;;;;5139565;27;20434;-40
2021/03/13 10:51:24;;;;;;;1.63;1.00;;;9.60;75.00;;;;;;5139782;27;20432;-39
2021/03/13 10:53:49;;;;;;;1.77;0.50;;;9.60;75.00;;;;;;5139601;27;20779;-40
2021/03/13 10:56:16;;;;;;;1.20;0.67;;;9.50;74.60;;;;;;5120782;27;20425;-41
2021/03/13 10:58:57;;;;;;;1.63;0.83;;;9.60;75.00;;;;;;5138678;27;20175;-41
2021/03/13 11:01:23;;;;;;;0.97;0.40;;;9.60;74.70;;;;;;5133114;27;20427;-39
2021/03/13 11:03:50;;;;;;;1.77;0.60;;;9.60;74.20;;;;;;5139682;27;20413;-42
2021/03/13 11:06:34;;;;;;;1.00;0.70;;;9.70;73.90;;;;;;5137846;27;20446;-41
2021/03/13 11:09:03;;;;;;;1.57;0.50;;;9.80;73.70;;;;;;5137470;27;20508;-40
2021/03/13 11:11:29;;;;;;;2.17;0.70;;;9.70;73.30;;;;;;5137544;27;20459;-42
2021/03/13 11:13:55;;;;;;;3.53;0.83;;;9.70;73.30;;;;;;5139283;27;20448;-43
2021/03/13 11:16:22;;;;;;;2.63;0.60;;;9.80;73.10;;;;;;5137764;27;20231;-42
2021/03/13 11:18:53;;;;;;;1.07;0.60;;;9.80;73.10;;;;;;5138861;27;20499;-44
2021/03/13 11:21:23;;;;;;;3.90;0.87;;;9.90;72.90;;;;;;5138728;27;20428;-42
2021/03/13 11:23:49;;;;;;;3.03;0.90;;;10.00;70.90;;;;;;5139187;27;20507;-42
2021/03/13 11:26:17;;;;;;;26.93;1.33;;;9.90;72.70;;;;;;5139273;27;20872;-40
2021/03/13 11:28:43;;;;;;;1.00;0.50;;;9.90;72.30;;;;;;5120912;27;20927;-42
2021/03/13 11:31:08;;;;;;;5.43;0.60;;;10.00;71.30;;;;;;5138183;27;20428;-42
2021/03/13 11:33:34;;;;;;;1.60;0.70;;;9.90;73.40;;;;;;5139464;27;20177;-41
2021/03/13 11:36:00;;;;;;;2.17;0.70;;;9.80;72.80;;;;;;5118570;27;20543;-43
2021/03/13 11:38:25;;;;;;;1.67;0.50;;;9.90;73.80;;;;;;5137349;27;20532;-43
2021/03/13 11:40:51;;;;;;;4.90;0.83;;;9.90;72.80;;;;;;5136114;27;20382;-41
2021/03/13 11:43:17;;;;;;;1.53;0.60;;;9.90;72.50;;;;;;5137570;27;20171;-43
2021/03/13 11:45:42;;;;;;;1.57;1.03;;;9.90;72.80;;;;;;5136955;27;20203;-43
2021/03/13 11:48:09;;;;;;;0.90;0.60;;;9.90;72.40;;;;;;5137829;27;20183;-42
2021/03/13 11:50:35;;;;;;;1.80;0.90;;;10.10;70.70;;;;;;5119909;27;20167;-43
2021/03/13 11:53:01;;;;;;;1.80;1.20;;;10.20;70.80;;;;;;5139770;27;20451;-43
2021/03/13 11:55:27;;;;;;;2.47;0.90;;;10.20;70.80;;;;;;5138817;27;20217;-42
2021/03/13 11:57:53;;;;;;;5.40;0.83;;;10.20;70.70;;;;;;5137339;27;20191;-40
2021/03/13 12:00:20;;;;;;;2.03;0.70;;;10.10;70.90;;;;;;5119898;27;20830;-42
2021/03/13 12:02:46;;;;;;;1.77;0.63;;;10.00;71.10;;;;;;5118702;27;20711;-42
2021/03/13 12:05:12;;;;;;;2.33;0.83;;;9.90;72.80;;;;;;5136436;27;20456;-42
2021/03/13 12:07:39;;;;;;;1.73;1.00;;;9.90;73.80;;;;;;5137746;27;20429;-42
2021/03/13 12:10:06;;;;;;;1.40;0.60;;;9.80;73.90;;;;;;5137634;27;20553;-42
2021/03/13 12:12:32;;;;;;;1.70;0.70;;;9.70;75.10;;;;;;5137658;27;20459;-42
2021/03/13 12:14:57;;;;;;;1.83;0.63;;;9.70;76.70;;;;;;5137594;27;20850;-42
2021/03/13 12:17:23;;;;;;;1.40;0.70;;;9.70;78.10;;;;;;5137793;27;20451;-42
2021/03/13 12:19:49;;;;;;;2.50;0.80;;;9.60;79.70;;;;;;5138088;27;20188;-43
2021/03/13 12:22:15;;;;;;;1.40;0.53;;;9.30;81.40;;;;;;5138882;27;20187;-41
2021/03/13 12:24:41;;;;;;;1.53;0.73;;;9.30;82.60;;;;;;5138545;27;20289;-42
2021/03/13 12:27:06;;;;;;;1.20;0.73;;;9.30;84.60;;;;;;5136670;27;20855;-41
2021/03/13 12:29:33;;;;;;;0.90;0.50;;;9.20;86.30;;;;;;5138088;27;20163;-42
2021/03/13 12:31:59;;;;;;;4.70;0.90;;;9.20;87.70;;;;;;5133334;27;20259;-40
2021/03/13 12:34:24;;;;;;;2.00;0.80;;;9.30;88.60;;;;;;5137671;27;21004;-42
2021/03/13 12:36:50;;;;;;;3.83;1.30;;;9.40;88.40;;;;;;5137271;27;20433;-42
2021/03/13 12:39:17;;;;;;;3.00;0.97;;;9.30;87.90;;;;;;5137200;27;20583;-42
2021/03/13 12:41:43;;;;;;;1.37;0.60;;;9.20;88.70;;;;;;5137167;27;20440;-41
2021/03/13 12:44:09;;;;;;;1.77;0.90;;;9.40;88.80;;;;;;5138031;27;20460;-43
2021/03/13 12:46:34;;;;;;;1.40;0.77;;;9.30;88.80;;;;;;5138470;27;20436;-43
2021/03/13 12:49:00;;;;;;;2.40;0.97;;;9.40;88.70;;;;;;5137679;27;20449;-42
2021/03/13 12:51:26;;;;;;;1.10;0.63;;;9.30;88.10;;;;;;5138447;27;20517;-43
2021/03/13 12:53:51;;;;;;;3.00;0.70;;;9.20;89.40;;;;;;5137922;27;20173;-43
2021/03/13 12:56:17;;;;;;;1.40;0.90;;;9.00;90.00;;;;;;5137154;27;20190;-43
2021/03/13 12:58:43;;;;;;;2.10;0.77;;;8.70;91.10;;;;;;5119146;27;20182;-43
2021/03/13 13:01:09;;;;;;;1.23;0.60;;;8.70;91.70;;;;;;5118687;27;20432;-44
2021/03/13 13:03:35;;;;;;;2.40;0.70;;;8.40;91.70;;;;;;5135493;27;20283;-44
2021/03/13 13:06:00;;;;;;;1.10;0.73;;;8.30;92.40;;;;;;5137845;27;20175;-43